sensor_id;sensor_type;location;lat;lon;timestamp;temperature;humidity
23305;DHT22;11821;51.456;8.844;2022-10-22T00:01:35;13.80;99.90
23305;DHT22;11821;51.456;8.844;2022-10-22T00:04:03;13.80;99.90
23305;DHT22;11821;51.456;8.844;2022-10-22T00:06:29;13.70;99.90
23305;DHT22;11821;51.456;8.844;2022-10-22T00:08:55;13.70;99.90
23305;DHT22;11821;51.456;8.844;2022-10-22T00:11:21;13.70;99.90
23305;DHT22;11821;51.456;8.844;2022-10-22T00:13:48;13.70;99.90
23305;DHT22;11821;51.456;8.844;2022-10-22T00:16:14;13.70;99.90
23305;DHT22;11821;51.456;8.844;2022-10-22T00:18:40;13.70;99.90
23305;DHT22;11821;51.456;8.844;2022-10-22T00:21:07;13.60;99.90
23305;DHT22;11821;51.456;8.844;2022-10-22T00:23:33;13.60;99.90
23305;DHT22;11821;51.456;8.844;2022-10-22T00:25:59;13.70;99.90
23305;DHT22;11821;51.456;8.844;2022-10-22T00:28:26;13.60;99.90
23305;DHT22;11821;51.456;8.844;2022-10-22T00:30:59;13.70;99.90
23305;DHT22;11821;51.456;8.844;2022-10-22T00:33:26;13.60;99.90
23305;DHT22;11821;51.456;8.844;2022-10-22T00:35:53;13.60;99.90
23305;DHT22;11821;51.456;8.844;2022-10-22T00:38:19;13.60;99.90
23305;DHT22;11821;51.456;8.844;2022-10-22T00:40:46;13.60;99.90
23305;DHT22;11821;51.456;8.844;2022-10-22T00:43:15;13.60;99.90
23305;DHT22;11821;51.456;8.844;2022-10-22T00:45:42;13.50;99.90
23305;DHT22;11821;51.456;8.844;2022-10-22T00:48:22;13.60;99.90
23305;DHT22;11821;51.456;8.844;2022-10-22T00:50:54;13.60;99.90
23305;DHT22;11821;51.456;8.844;2022-10-22T00:53:33;13.50;99.90
23305;DHT22;11821;51.456;8.844;2022-10-22T00:56:01;13.50;99.90
23305;DHT22;11821;51.456;8.844;2022-10-22T00:58:30;13.50;99.90
23305;DHT22;11821;51.456;8.844;2022-10-22T01:00:58;13.50;99.90
23305;DHT22;11821;51.456;8.844;2022-10-22T01:03:24;13.50;99.90
23305;DHT22;11821;51.456;8.844;2022-10-22T01:06:02;13.40;99.90
23305;DHT22;11821;51.456;8.844;2022-10-22T01:16:57;13.50;99.90
23305;DHT22;11821;51.456;8.844;2022-10-22T01:22:10;13.50;99.90
23305;DHT22;11821;51.456;8.844;2022-10-22T01:30:28;13.40;99.90
23305;DHT22;11821;51.456;8.844;2022-10-22T01:32:58;13.40;99.90
23305;DHT22;11821;51.456;8.844;2022-10-22T01:35:30;13.40;99.90
23305;DHT22;11821;51.456;8.844;2022-10-22T01:38:00;13.40;99.90
23305;DHT22;11821;51.456;8.844;2022-10-22T01:40:28;13.40;99.90
23305;DHT22;11821;51.456;8.844;2022-10-22T01:43:03;13.30;99.90
23305;DHT22;11821;51.456;8.844;2022-10-22T01:45:34;13.40;99.90
23305;DHT22;11821;51.456;8.844;2022-10-22T01:48:06;13.30;99.90
23305;DHT22;11821;51.456;8.844;2022-10-22T01:53:31;13.40;99.90
23305;DHT22;11821;51.456;8.844;2022-10-22T01:59:16;13.40;99.90
23305;DHT22;11821;51.456;8.844;2022-10-22T02:02:03;13.40;99.90
23305;DHT22;11821;51.456;8.844;2022-10-22T02:07:08;13.40;99.90
23305;DHT22;11821;51.456;8.844;2022-10-22T02:09:35;13.40;99.90
23305;DHT22;11821;51.456;8.844;2022-10-22T02:12:04;13.40;99.90
23305;DHT22;11821;51.456;8.844;2022-10-22T02:14:32;13.40;99.90
23305;DHT22;11821;51.456;8.844;2022-10-22T02:17:00;13.40;99.90
23305;DHT22;11821;51.456;8.844;2022-10-22T02:19:34;13.40;99.90
23305;DHT22;11821;51.456;8.844;2022-10-22T02:22:02;13.40;99.90
23305;DHT22;11821;51.456;8.844;2022-10-22T02:24:29;13.30;99.90
23305;DHT22;11821;51.456;8.844;2022-10-22T02:29:37;13.30;99.90
23305;DHT22;11821;51.456;8.844;2022-10-22T02:32:07;13.30;99.90
23305;DHT22;11821;51.456;8.844;2022-10-22T02:34:34;13.30;99.90
23305;DHT22;11821;51.456;8.844;2022-10-22T02:37:02;13.40;99.90
23305;DHT22;11821;51.456;8.844;2022-10-22T02:39:30;13.40;99.90
23305;DHT22;11821;51.456;8.844;2022-10-22T02:41:57;13.40;99.90
23305;DHT22;11821;51.456;8.844;2022-10-22T02:44:23;13.40;99.90
23305;DHT22;11821;51.456;8.844;2022-10-22T02:46:49;13.40;99.90
23305;DHT22;11821;51.456;8.844;2022-10-22T02:49:16;13.30;99.90
23305;DHT22;11821;51.456;8.844;2022-10-22T02:51:42;13.30;99.90
23305;DHT22;11821;51.456;8.844;2022-10-22T02:54:08;13.30;99.90
23305;DHT22;11821;51.456;8.844;2022-10-22T02:56:34;13.30;99.90
23305;DHT22;11821;51.456;8.844;2022-10-22T02:59:00;13.30;99.90
23305;DHT22;11821;51.456;8.844;2022-10-22T03:01:26;13.30;99.90
23305;DHT22;11821;51.456;8.844;2022-10-22T03:03:53;13.30;99.90
23305;DHT22;11821;51.456;8.844;2022-10-22T03:06:19;13.40;99.90
23305;DHT22;11821;51.456;8.844;2022-10-22T03:08:46;13.30;99.90
23305;DHT22;11821;51.456;8.844;2022-10-22T03:11:12;13.30;99.90
23305;DHT22;11821;51.456;8.844;2022-10-22T03:13:38;13.30;99.90
23305;DHT22;11821;51.456;8.844;2022-10-22T03:16:04;13.30;99.90
23305;DHT22;11821;51.456;8.844;2022-10-22T03:18:31;13.30;99.90
23305;DHT22;11821;51.456;8.844;2022-10-22T03:21:06;13.30;99.90
23305;DHT22;11821;51.456;8.844;2022-10-22T03:23:32;13.30;99.90
23305;DHT22;11821;51.456;8.844;2022-10-22T03:25:59;13.30;99.90
23305;DHT22;11821;51.456;8.844;2022-10-22T03:28:25;13.30;99.90
23305;DHT22;11821;51.456;8.844;2022-10-22T03:30:52;13.40;99.90
23305;DHT22;11821;51.456;8.844;2022-10-22T03:33:18;13.30;99.90
23305;DHT22;11821;51.456;8.844;2022-10-22T03:35:45;13.30;99.90
23305;DHT22;11821;51.456;8.844;2022-10-22T03:38:12;13.30;99.90
23305;DHT22;11821;51.456;8.844;2022-10-22T03:40:40;13.20;99.90
23305;DHT22;11821;51.456;8.844;2022-10-22T03:43:07;13.30;99.90
23305;DHT22;11821;51.456;8.844;2022-10-22T03:45:33;13.30;99.90
23305;DHT22;11821;51.456;8.844;2022-10-22T03:48:00;13.20;99.90
23305;DHT22;11821;51.456;8.844;2022-10-22T03:50:26;13.20;99.90
23305;DHT22;11821;51.456;8.844;2022-10-22T03:52:52;13.30;99.90
23305;DHT22;11821;51.456;8.844;2022-10-22T03:55:18;13.30;99.90
23305;DHT22;11821;51.456;8.844;2022-10-22T03:57:44;13.20;99.90
23305;DHT22;11821;51.456;8.844;2022-10-22T04:00:11;13.30;99.90
23305;DHT22;11821;51.456;8.844;2022-10-22T04:02:37;13.30;99.90
23305;DHT22;11821;51.456;8.844;2022-10-22T04:05:03;13.30;99.90
23305;DHT22;11821;51.456;8.844;2022-10-22T04:07:29;13.30;99.90
23305;DHT22;11821;51.456;8.844;2022-10-22T04:09:56;13.30;99.90
23305;DHT22;11821;51.456;8.844;2022-10-22T04:12:22;13.30;99.90
23305;DHT22;11821;51.456;8.844;2022-10-22T04:14:48;13.30;99.90
23305;DHT22;11821;51.456;8.844;2022-10-22T04:17:14;13.30;99.90
23305;DHT22;11821;51.456;8.844;2022-10-22T04:19:40;13.30;99.90
23305;DHT22;11821;51.456;8.844;2022-10-22T04:22:06;13.30;99.90
23305;DHT22;11821;51.456;8.844;2022-10-22T04:24:33;13.30;99.90
23305;DHT22;11821;51.456;8.844;2022-10-22T04:26:59;13.30;99.90
23305;DHT22;11821;51.456;8.844;2022-10-22T04:29:25;13.30;99.90
23305;DHT22;11821;51.456;8.844;2022-10-22T04:31:51;13.30;99.90
23305;DHT22;11821;51.456;8.844;2022-10-22T04:34:17;13.30;99.90
23305;DHT22;11821;51.456;8.844;2022-10-22T04:36:43;13.30;99.90
23305;DHT22;11821;51.456;8.844;2022-10-22T04:39:10;13.30;99.90
23305;DHT22;11821;51.456;8.844;2022-10-22T04:41:37;13.30;99.90
23305;DHT22;11821;51.456;8.844;2022-10-22T04:44:05;13.30;99.90
23305;DHT22;11821;51.456;8.844;2022-10-22T04:46:32;13.30;99.90
23305;DHT22;11821;51.456;8.844;2022-10-22T04:48:59;13.20;99.90
23305;DHT22;11821;51.456;8.844;2022-10-22T04:51:26;13.20;99.90
23305;DHT22;11821;51.456;8.844;2022-10-22T04:53:53;13.20;99.90
23305;DHT22;11821;51.456;8.844;2022-10-22T04:56:25;13.10;99.90
23305;DHT22;11821;51.456;8.844;2022-10-22T04:59:00;13.20;99.90
23305;DHT22;11821;51.456;8.844;2022-10-22T05:01:29;13.20;99.90
23305;DHT22;11821;51.456;8.844;2022-10-22T05:03:57;13.20;99.90
23305;DHT22;11821;51.456;8.844;2022-10-22T05:06:24;13.10;99.90
23305;DHT22;11821;51.456;8.844;2022-10-22T05:08:56;13.10;99.90
23305;DHT22;11821;51.456;8.844;2022-10-22T05:11:25;13.10;99.90
23305;DHT22;11821;51.456;8.844;2022-10-22T05:13:55;13.00;99.90
23305;DHT22;11821;51.456;8.844;2022-10-22T05:16:22;13.10;99.90
23305;DHT22;11821;51.456;8.844;2022-10-22T05:18:48;13.00;99.90
23305;DHT22;11821;51.456;8.844;2022-10-22T05:21:16;13.00;99.90
23305;DHT22;11821;51.456;8.844;2022-10-22T05:23:44;12.90;99.90
23305;DHT22;11821;51.456;8.844;2022-10-22T05:26:12;12.90;99.90
23305;DHT22;11821;51.456;8.844;2022-10-22T05:28:39;13.00;99.90
23305;DHT22;11821;51.456;8.844;2022-10-22T05:31:07;12.90;99.90
23305;DHT22;11821;51.456;8.844;2022-10-22T05:33:33;13.00;99.90
23305;DHT22;11821;51.456;8.844;2022-10-22T05:36:01;13.00;99.90
23305;DHT22;11821;51.456;8.844;2022-10-22T05:38:33;12.90;99.90
23305;DHT22;11821;51.456;8.844;2022-10-22T05:41:14;12.90;99.90
23305;DHT22;11821;51.456;8.844;2022-10-22T05:43:40;12.90;99.90
23305;DHT22;11821;51.456;8.844;2022-10-22T05:46:12;13.00;99.90
23305;DHT22;11821;51.456;8.844;2022-10-22T05:48:39;12.90;99.90
23305;DHT22;11821;51.456;8.844;2022-10-22T05:51:08;12.90;99.90
23305;DHT22;11821;51.456;8.844;2022-10-22T05:53:36;13.00;99.90
23305;DHT22;11821;51.456;8.844;2022-10-22T05:56:08;13.00;99.90
23305;DHT22;11821;51.456;8.844;2022-10-22T05:58:36;13.00;99.90
23305;DHT22;11821;51.456;8.844;2022-10-22T06:01:08;13.00;99.90
23305;DHT22;11821;51.456;8.844;2022-10-22T06:03:36;12.90;99.90
23305;DHT22;11821;51.456;8.844;2022-10-22T06:08:40;13.00;99.90
23305;DHT22;11821;51.456;8.844;2022-10-22T06:11:06;13.00;99.90
23305;DHT22;11821;51.456;8.844;2022-10-22T06:13:33;13.00;99.90
23305;DHT22;11821;51.456;8.844;2022-10-22T06:15:59;13.10;99.90
23305;DHT22;11821;51.456;8.844;2022-10-22T06:18:25;13.00;99.90
23305;DHT22;11821;51.456;8.844;2022-10-22T06:20:51;12.90;99.90
23305;DHT22;11821;51.456;8.844;2022-10-22T06:23:17;13.00;99.90
23305;DHT22;11821;51.456;8.844;2022-10-22T06:25:43;13.00;99.90
23305;DHT22;11821;51.456;8.844;2022-10-22T06:28:09;13.00;99.90
23305;DHT22;11821;51.456;8.844;2022-10-22T06:30:37;13.00;99.90
23305;DHT22;11821;51.456;8.844;2022-10-22T06:33:03;13.10;99.90
23305;DHT22;11821;51.456;8.844;2022-10-22T06:35:29;13.10;99.90
23305;DHT22;11821;51.456;8.844;2022-10-22T06:37:55;13.10;99.90
23305;DHT22;11821;51.456;8.844;2022-10-22T06:40:22;13.20;99.90
23305;DHT22;11821;51.456;8.844;2022-10-22T06:42:49;13.20;99.90
23305;DHT22;11821;51.456;8.844;2022-10-22T06:45:15;13.20;99.90
23305;DHT22;11821;51.456;8.844;2022-10-22T06:47:41;13.20;99.90
23305;DHT22;11821;51.456;8.844;2022-10-22T06:50:07;13.30;99.90
23305;DHT22;11821;51.456;8.844;2022-10-22T06:52:34;13.20;99.90
23305;DHT22;11821;51.456;8.844;2022-10-22T06:55:00;13.30;99.90
23305;DHT22;11821;51.456;8.844;2022-10-22T06:57:26;13.30;99.90
23305;DHT22;11821;51.456;8.844;2022-10-22T06:59:52;13.20;99.90
23305;DHT22;11821;51.456;8.844;2022-10-22T07:02:18;13.10;99.90
23305;DHT22;11821;51.456;8.844;2022-10-22T07:04:45;13.20;99.90
23305;DHT22;11821;51.456;8.844;2022-10-22T07:07:11;13.20;99.90
23305;DHT22;11821;51.456;8.844;2022-10-22T07:09:37;13.20;99.90
23305;DHT22;11821;51.456;8.844;2022-10-22T07:12:04;13.20;99.90
23305;DHT22;11821;51.456;8.844;2022-10-22T07:14:30;13.10;99.90
23305;DHT22;11821;51.456;8.844;2022-10-22T07:16:56;13.10;99.90
23305;DHT22;11821;51.456;8.844;2022-10-22T07:19:23;13.10;99.90
23305;DHT22;11821;51.456;8.844;2022-10-22T07:21:49;13.10;99.90
23305;DHT22;11821;51.456;8.844;2022-10-22T07:24:15;13.10;99.90
23305;DHT22;11821;51.456;8.844;2022-10-22T07:26:41;13.10;99.90
23305;DHT22;11821;51.456;8.844;2022-10-22T07:29:07;13.00;99.90
23305;DHT22;11821;51.456;8.844;2022-10-22T07:31:34;13.00;99.90
23305;DHT22;11821;51.456;8.844;2022-10-22T07:34:01;13.10;99.90
23305;DHT22;11821;51.456;8.844;2022-10-22T07:36:27;13.20;99.90
23305;DHT22;11821;51.456;8.844;2022-10-22T07:38:56;13.10;99.90
23305;DHT22;11821;51.456;8.844;2022-10-22T07:41:22;13.10;99.90
23305;DHT22;11821;51.456;8.844;2022-10-22T07:43:49;13.10;99.90
23305;DHT22;11821;51.456;8.844;2022-10-22T07:46:15;13.10;99.90
23305;DHT22;11821;51.456;8.844;2022-10-22T07:48:41;13.10;99.90
23305;DHT22;11821;51.456;8.844;2022-10-22T07:51:07;13.00;99.90
23305;DHT22;11821;51.456;8.844;2022-10-22T07:53:34;13.00;99.90
23305;DHT22;11821;51.456;8.844;2022-10-22T07:56:00;13.10;99.90
23305;DHT22;11821;51.456;8.844;2022-10-22T07:58:26;13.00;99.90
23305;DHT22;11821;51.456;8.844;2022-10-22T08:00:56;13.10;99.90
23305;DHT22;11821;51.456;8.844;2022-10-22T08:03:23;13.00;99.90
23305;DHT22;11821;51.456;8.844;2022-10-22T08:05:50;13.10;99.90
23305;DHT22;11821;51.456;8.844;2022-10-22T08:08:16;13.20;99.90
23305;DHT22;11821;51.456;8.844;2022-10-22T08:10:43;13.20;99.90
23305;DHT22;11821;51.456;8.844;2022-10-22T08:13:09;13.20;99.90
23305;DHT22;11821;51.456;8.844;2022-10-22T08:15:36;13.30;99.90
23305;DHT22;11821;51.456;8.844;2022-10-22T08:18:02;13.30;99.90
23305;DHT22;11821;51.456;8.844;2022-10-22T08:20:28;13.30;99.90
23305;DHT22;11821;51.456;8.844;2022-10-22T08:22:55;13.20;99.90
23305;DHT22;11821;51.456;8.844;2022-10-22T08:25:21;13.30;99.90
23305;DHT22;11821;51.456;8.844;2022-10-22T08:27:47;13.40;99.90
23305;DHT22;11821;51.456;8.844;2022-10-22T08:30:13;13.50;99.90
23305;DHT22;11821;51.456;8.844;2022-10-22T08:32:40;13.70;99.90
23305;DHT22;11821;51.456;8.844;2022-10-22T08:35:06;14.10;99.90
23305;DHT22;11821;51.456;8.844;2022-10-22T08:37:32;14.30;99.90
23305;DHT22;11821;51.456;8.844;2022-10-22T08:39:59;14.50;99.90
23305;DHT22;11821;51.456;8.844;2022-10-22T08:48:30;15.20;99.90
23305;DHT22;11821;51.456;8.844;2022-10-22T08:51:01;15.40;99.90
23305;DHT22;11821;51.456;8.844;2022-10-22T08:53:35;15.70;99.90
23305;DHT22;11821;51.456;8.844;2022-10-22T08:56:04;15.80;99.90
23305;DHT22;11821;51.456;8.844;2022-10-22T08:58:55;15.90;99.90
23305;DHT22;11821;51.456;8.844;2022-10-22T09:01:38;16.30;99.90
23305;DHT22;11821;51.456;8.844;2022-10-22T09:07:08;16.50;99.90
23305;DHT22;11821;51.456;8.844;2022-10-22T09:09:44;16.80;99.90
23305;DHT22;11821;51.456;8.844;2022-10-22T09:12:16;17.00;99.90
23305;DHT22;11821;51.456;8.844;2022-10-22T09:14:42;17.30;99.90
23305;DHT22;11821;51.456;8.844;2022-10-22T09:17:13;17.30;99.90
23305;DHT22;11821;51.456;8.844;2022-10-22T09:19:59;17.60;99.90
23305;DHT22;11821;51.456;8.844;2022-10-22T09:22:49;18.00;99.90
23305;DHT22;11821;51.456;8.844;2022-10-22T09:27:47;18.40;99.90
23305;DHT22;11821;51.456;8.844;2022-10-22T09:30:19;18.60;99.90
23305;DHT22;11821;51.456;8.844;2022-10-22T09:32:51;18.90;99.90
23305;DHT22;11821;51.456;8.844;2022-10-22T09:35:22;19.20;99.90
23305;DHT22;11821;51.456;8.844;2022-10-22T09:37:53;19.40;99.90
23305;DHT22;11821;51.456;8.844;2022-10-22T09:40:20;19.50;99.90
23305;DHT22;11821;51.456;8.844;2022-10-22T09:42:47;19.60;99.90
23305;DHT22;11821;51.456;8.844;2022-10-22T09:45:19;19.60;99.90
23305;DHT22;11821;51.456;8.844;2022-10-22T09:47:46;19.50;99.90
23305;DHT22;11821;51.456;8.844;2022-10-22T09:53:04;19.70;99.90
23305;DHT22;11821;51.456;8.844;2022-10-22T09:55:37;19.90;99.90
23305;DHT22;11821;51.456;8.844;2022-10-22T09:58:03;20.10;99.90
23305;DHT22;11821;51.456;8.844;2022-10-22T10:00:29;20.20;99.90
23305;DHT22;11821;51.456;8.844;2022-10-22T10:02:58;20.20;99.90
23305;DHT22;11821;51.456;8.844;2022-10-22T10:05:30;20.10;99.90
23305;DHT22;11821;51.456;8.844;2022-10-22T10:07:57;20.20;99.90
23305;DHT22;11821;51.456;8.844;2022-10-22T10:19:35;20.70;99.90
23305;DHT22;11821;51.456;8.844;2022-10-22T10:27:19;20.10;99.90
23305;DHT22;11821;51.456;8.844;2022-10-22T10:30:00;20.10;99.90
23305;DHT22;11821;51.456;8.844;2022-10-22T10:41:30;20.70;99.90
23305;DHT22;11821;51.456;8.844;2022-10-22T10:49:23;20.30;99.90
23305;DHT22;11821;51.456;8.844;2022-10-22T10:52:03;20.60;99.90
23305;DHT22;11821;51.456;8.844;2022-10-22T10:54:57;20.90;99.90
23305;DHT22;11821;51.456;8.844;2022-10-22T10:57:55;21.10;99.90
23305;DHT22;11821;51.456;8.844;2022-10-22T11:00:24;21.00;99.90
23305;DHT22;11821;51.456;8.844;2022-10-22T11:05:47;20.70;99.90
23305;DHT22;11821;51.456;8.844;2022-10-22T11:10:53;20.50;99.90
23305;DHT22;11821;51.456;8.844;2022-10-22T11:13:32;20.60;99.90
23305;DHT22;11821;51.456;8.844;2022-10-22T11:16:02;20.60;99.90
23305;DHT22;11821;51.456;8.844;2022-10-22T11:18:41;20.50;99.90
23305;DHT22;11821;51.456;8.844;2022-10-22T11:24:24;20.50;99.90
23305;DHT22;11821;51.456;8.844;2022-10-22T11:27:12;20.60;99.90
23305;DHT22;11821;51.456;8.844;2022-10-22T11:29:46;20.80;99.90
23305;DHT22;11821;51.456;8.844;2022-10-22T11:32:17;20.70;99.90
23305;DHT22;11821;51.456;8.844;2022-10-22T11:34:45;20.70;99.90
23305;DHT22;11821;51.456;8.844;2022-10-22T11:37:12;20.70;99.90
23305;DHT22;11821;51.456;8.844;2022-10-22T11:39:43;20.60;99.90
23305;DHT22;11821;51.456;8.844;2022-10-22T11:45:35;20.60;99.90
23305;DHT22;11821;51.456;8.844;2022-10-22T11:55:41;20.30;99.90
23305;DHT22;11821;51.456;8.844;2022-10-22T11:58:28;20.30;99.90
23305;DHT22;11821;51.456;8.844;2022-10-22T12:14:23;20.10;99.90
23305;DHT22;11821;51.456;8.844;2022-10-22T12:19:36;20.30;99.90
23305;DHT22;11821;51.456;8.844;2022-10-22T12:22:22;20.40;99.90
23305;DHT22;11821;51.456;8.844;2022-10-22T12:24:52;20.30;99.90
23305;DHT22;11821;51.456;8.844;2022-10-22T12:27:20;20.20;99.90
23305;DHT22;11821;51.456;8.844;2022-10-22T12:29:48;20.20;99.90
23305;DHT22;11821;51.456;8.844;2022-10-22T12:32:15;20.20;99.90
23305;DHT22;11821;51.456;8.844;2022-10-22T12:34:50;20.00;99.90
23305;DHT22;11821;51.456;8.844;2022-10-22T12:37:17;20.00;99.90
23305;DHT22;11821;51.456;8.844;2022-10-22T12:39:44;19.90;99.90
23305;DHT22;11821;51.456;8.844;2022-10-22T12:42:16;20.00;99.90
23305;DHT22;11821;51.456;8.844;2022-10-22T12:44:43;20.00;99.90
23305;DHT22;11821;51.456;8.844;2022-10-22T12:47:14;19.80;99.90
23305;DHT22;11821;51.456;8.844;2022-10-22T12:49:45;19.70;99.90
23305;DHT22;11821;51.456;8.844;2022-10-22T12:52:15;19.80;99.90
23305;DHT22;11821;51.456;8.844;2022-10-22T12:54:45;19.70;99.90
23305;DHT22;11821;51.456;8.844;2022-10-22T12:57:15;19.80;99.90
23305;DHT22;11821;51.456;8.844;2022-10-22T12:59:44;19.80;99.90
23305;DHT22;11821;51.456;8.844;2022-10-22T13:02:21;19.90;99.90
23305;DHT22;11821;51.456;8.844;2022-10-22T13:07:43;19.80;99.90
23305;DHT22;11821;51.456;8.844;2022-10-22T13:10:29;19.80;99.90
23305;DHT22;11821;51.456;8.844;2022-10-22T13:12:57;19.90;99.90
23305;DHT22;11821;51.456;8.844;2022-10-22T13:21:20;20.20;99.90
23305;DHT22;11821;51.456;8.844;2022-10-22T13:23:56;20.30;99.90
23305;DHT22;11821;51.456;8.844;2022-10-22T13:26:24;20.30;99.90
23305;DHT22;11821;51.456;8.844;2022-10-22T13:28:55;20.30;99.90
23305;DHT22;11821;51.456;8.844;2022-10-22T13:31:24;20.40;99.90
23305;DHT22;11821;51.456;8.844;2022-10-22T13:33:56;20.60;99.90
23305;DHT22;11821;51.456;8.844;2022-10-22T13:36:24;20.50;99.90
23305;DHT22;11821;51.456;8.844;2022-10-22T13:38:50;20.40;99.90
23305;DHT22;11821;51.456;8.844;2022-10-22T13:41:28;20.30;99.90
23305;DHT22;11821;51.456;8.844;2022-10-22T13:43:55;20.30;99.90
23305;DHT22;11821;51.456;8.844;2022-10-22T13:46:23;20.20;99.90
23305;DHT22;11821;51.456;8.844;2022-10-22T13:48:52;20.30;99.90
23305;DHT22;11821;51.456;8.844;2022-10-22T13:51:37;20.20;99.90
23305;DHT22;11821;51.456;8.844;2022-10-22T13:54:08;20.20;99.90
23305;DHT22;11821;51.456;8.844;2022-10-22T13:56:35;20.30;99.90
23305;DHT22;11821;51.456;8.844;2022-10-22T13:59:01;20.10;99.90
23305;DHT22;11821;51.456;8.844;2022-10-22T14:01:28;20.20;99.90
23305;DHT22;11821;51.456;8.844;2022-10-22T14:03:57;20.20;99.90
23305;DHT22;11821;51.456;8.844;2022-10-22T14:06:25;20.30;99.90
23305;DHT22;11821;51.456;8.844;2022-10-22T14:08:58;20.20;99.90
23305;DHT22;11821;51.456;8.844;2022-10-22T14:11:25;20.00;99.90
23305;DHT22;11821;51.456;8.844;2022-10-22T14:14:00;20.10;99.90
23305;DHT22;11821;51.456;8.844;2022-10-22T14:16:30;20.10;99.90
23305;DHT22;11821;51.456;8.844;2022-10-22T14:18:58;20.20;99.90
23305;DHT22;11821;51.456;8.844;2022-10-22T14:21:28;20.20;99.90
23305;DHT22;11821;51.456;8.844;2022-10-22T14:23:55;20.00;99.90
23305;DHT22;11821;51.456;8.844;2022-10-22T14:26:23;20.00;99.90
23305;DHT22;11821;51.456;8.844;2022-10-22T14:28:50;19.90;99.90
23305;DHT22;11821;51.456;8.844;2022-10-22T14:31:16;19.90;99.90
23305;DHT22;11821;51.456;8.844;2022-10-22T14:33:42;19.90;99.90
23305;DHT22;11821;51.456;8.844;2022-10-22T14:36:12;20.00;99.90
23305;DHT22;11821;51.456;8.844;2022-10-22T14:38:39;20.10;99.90
23305;DHT22;11821;51.456;8.844;2022-10-22T14:41:20;20.10;99.90
23305;DHT22;11821;51.456;8.844;2022-10-22T14:43:47;20.10;99.90
23305;DHT22;11821;51.456;8.844;2022-10-22T14:46:15;20.10;99.90
23305;DHT22;11821;51.456;8.844;2022-10-22T14:48:41;20.20;99.90
23305;DHT22;11821;51.456;8.844;2022-10-22T14:51:16;20.00;99.90
23305;DHT22;11821;51.456;8.844;2022-10-22T14:53:43;20.00;99.90
23305;DHT22;11821;51.456;8.844;2022-10-22T14:56:17;19.90;99.90
23305;DHT22;11821;51.456;8.844;2022-10-22T14:58:46;19.80;99.90
23305;DHT22;11821;51.456;8.844;2022-10-22T15:01:12;19.80;99.90
23305;DHT22;11821;51.456;8.844;2022-10-22T15:03:38;19.80;99.90
23305;DHT22;11821;51.456;8.844;2022-10-22T15:06:05;19.80;99.90
23305;DHT22;11821;51.456;8.844;2022-10-22T15:08:31;19.80;99.90
23305;DHT22;11821;51.456;8.844;2022-10-22T15:11:06;19.90;99.90
23305;DHT22;11821;51.456;8.844;2022-10-22T15:13:34;19.90;99.90
23305;DHT22;11821;51.456;8.844;2022-10-22T15:16:00;19.90;99.90
23305;DHT22;11821;51.456;8.844;2022-10-22T15:18:30;19.90;99.90
23305;DHT22;11821;51.456;8.844;2022-10-22T15:20:58;19.90;99.90
23305;DHT22;11821;51.456;8.844;2022-10-22T15:23:24;19.90;99.90
23305;DHT22;11821;51.456;8.844;2022-10-22T15:25:51;19.90;99.90
23305;DHT22;11821;51.456;8.844;2022-10-22T15:28:17;19.90;99.90
23305;DHT22;11821;51.456;8.844;2022-10-22T15:30:43;19.80;99.90
23305;DHT22;11821;51.456;8.844;2022-10-22T15:33:10;19.80;99.90
23305;DHT22;11821;51.456;8.844;2022-10-22T15:35:36;19.80;99.90
23305;DHT22;11821;51.456;8.844;2022-10-22T15:38:02;19.80;99.90
23305;DHT22;11821;51.456;8.844;2022-10-22T15:40:31;19.70;99.90
23305;DHT22;11821;51.456;8.844;2022-10-22T15:42:57;19.70;99.90
23305;DHT22;11821;51.456;8.844;2022-10-22T15:45:23;19.70;99.90
23305;DHT22;11821;51.456;8.844;2022-10-22T15:47:50;19.60;99.90
23305;DHT22;11821;51.456;8.844;2022-10-22T15:50:16;19.50;99.90
23305;DHT22;11821;51.456;8.844;2022-10-22T15:52:43;19.30;99.90
23305;DHT22;11821;51.456;8.844;2022-10-22T15:55:09;19.20;99.90
23305;DHT22;11821;51.456;8.844;2022-10-22T15:57:36;19.10;99.90
23305;DHT22;11821;51.456;8.844;2022-10-22T16:00:05;19.00;99.90
23305;DHT22;11821;51.456;8.844;2022-10-22T16:02:38;18.90;99.90
23305;DHT22;11821;51.456;8.844;2022-10-22T16:05:05;18.90;99.90
23305;DHT22;11821;51.456;8.844;2022-10-22T16:07:31;18.90;99.90
23305;DHT22;11821;51.456;8.844;2022-10-22T16:09:58;18.90;99.90
23305;DHT22;11821;51.456;8.844;2022-10-22T16:12:25;18.80;99.90
23305;DHT22;11821;51.456;8.844;2022-10-22T16:14:51;18.70;99.90
23305;DHT22;11821;51.456;8.844;2022-10-22T16:17:17;18.70;99.90
23305;DHT22;11821;51.456;8.844;2022-10-22T16:19:44;18.70;99.90
23305;DHT22;11821;51.456;8.844;2022-10-22T16:22:10;18.70;99.90
23305;DHT22;11821;51.456;8.844;2022-10-22T16:24:38;18.70;99.90
23305;DHT22;11821;51.456;8.844;2022-10-22T16:27:08;18.60;99.90
23305;DHT22;11821;51.456;8.844;2022-10-22T16:29:37;18.60;99.90
23305;DHT22;11821;51.456;8.844;2022-10-22T16:32:04;18.50;99.90
23305;DHT22;11821;51.456;8.844;2022-10-22T16:34:31;18.40;99.90
23305;DHT22;11821;51.456;8.844;2022-10-22T16:36:57;18.30;99.90
23305;DHT22;11821;51.456;8.844;2022-10-22T16:39:23;18.20;99.90
23305;DHT22;11821;51.456;8.844;2022-10-22T16:41:49;18.10;99.90
23305;DHT22;11821;51.456;8.844;2022-10-22T16:44:16;18.10;99.90
23305;DHT22;11821;51.456;8.844;2022-10-22T16:46:42;18.00;99.90
23305;DHT22;11821;51.456;8.844;2022-10-22T16:49:09;17.90;99.90
23305;DHT22;11821;51.456;8.844;2022-10-22T16:51:35;17.80;99.90
23305;DHT22;11821;51.456;8.844;2022-10-22T16:54:01;17.70;99.90
23305;DHT22;11821;51.456;8.844;2022-10-22T16:56:28;17.60;99.90
23305;DHT22;11821;51.456;8.844;2022-10-22T16:58:55;17.50;99.90
23305;DHT22;11821;51.456;8.844;2022-10-22T17:01:24;17.50;99.90
23305;DHT22;11821;51.456;8.844;2022-10-22T17:03:54;17.40;99.90
23305;DHT22;11821;51.456;8.844;2022-10-22T17:06:23;17.30;99.90
23305;DHT22;11821;51.456;8.844;2022-10-22T17:08:49;17.10;99.90
23305;DHT22;11821;51.456;8.844;2022-10-22T17:11:18;17.10;99.90
23305;DHT22;11821;51.456;8.844;2022-10-22T17:13:46;17.00;99.90
23305;DHT22;11821;51.456;8.844;2022-10-22T17:16:17;16.80;99.90
23305;DHT22;11821;51.456;8.844;2022-10-22T17:18:44;16.80;99.90
23305;DHT22;11821;51.456;8.844;2022-10-22T17:21:12;16.70;99.90
23305;DHT22;11821;51.456;8.844;2022-10-22T17:23:39;16.50;99.90
23305;DHT22;11821;51.456;8.844;2022-10-22T17:26:13;16.50;99.90
23305;DHT22;11821;51.456;8.844;2022-10-22T17:28:40;16.50;99.90
23305;DHT22;11821;51.456;8.844;2022-10-22T17:31:17;16.50;99.90
23305;DHT22;11821;51.456;8.844;2022-10-22T17:33:43;16.50;99.90
23305;DHT22;11821;51.456;8.844;2022-10-22T17:36:10;16.40;99.90
23305;DHT22;11821;51.456;8.844;2022-10-22T17:38:39;16.40;99.90